Aidadiva — ICDH — position and weather

sailwx.info

Track history (hours):
 
Tides and Currents Weather Stations Pressure Air Temp Water Temp Dewpoint Dewpoint Depression Visibility Wind Speed Wind Dir Waves Ship Positions

Aidadiva

Last reported at 2018-Feb-16 04:29 UTC. Time now 2018-Feb-19 01:40 UTC.
Position N 16°53' W 062°50'.

Length 252 m; draft 7.2 m.

Type: Ship. MMSI: 247187700.

Date/timePositionNaut miles runAvg speedWind from/ knotsBaromVisibWave heightAir tempDewpointWater temp
2018-Feb-16 04:29N 16°53' W 062°50'2312.5
2018-Feb-16 02:37N 16°55' W 062°25'212.9
2018-Feb-16 02:26N 16°57' W 062°24'912.7
2018-Feb-16 01:43N 17°02' W 062°17'313.1
2018-Feb-16 01:29N 17°04' W 062°14'613.1
2018-Feb-16 01:01N 17°08' W 062°09'613.0
2018-Feb-16 00:31N 17°12' W 062°03'612.7
2018-Feb-16 00:00N 17°10' W 061°57'611.3
2018-Feb-15 23:30N 17°07' W 061°51'1 1.2
2018-Feb-15 23:01N 17°07' W 061°51'0 0.0
2018-Feb-15 22:30N 17°07' W 061°51'0 0.0
2018-Feb-15 22:00N 17°07' W 061°51'0 0.0
2018-Feb-15 21:30N 17°07' W 061°51'0 0.0
2018-Feb-15 21:00N 17°07' W 061°51'0 0.0
2018-Feb-15 20:26N 17°07' W 061°51'0 0.0
2018-Feb-15 19:59N 17°07' W 061°51'0 0.0
2018-Feb-15 19:29N 17°07' W 061°51'0 0.0
2018-Feb-15 18:59N 17°07' W 061°51'0 0.0
2018-Feb-15 18:29N 17°07' W 061°51'0 0.0
2018-Feb-15 17:58N 17°07' W 061°51'0 0.0
2018-Feb-15 17:28N 17°07' W 061°51'0 0.0
2018-Feb-15 16:58N 17°07' W 061°51'0 0.0
2018-Feb-15 16:25N 17°07' W 061°51'0 0.0
2018-Feb-15 16:00N 17°07' W 061°51'0 0.0
2018-Feb-15 15:30N 17°07' W 061°51'0 0.0
2018-Feb-15 14:54N 17°07' W 061°51'0 0.0
2018-Feb-15 14:30N 17°07' W 061°51'0 0.0
2018-Feb-15 14:00N 17°07' W 061°51'0 0.0
2018-Feb-15 13:29N 17°07' W 061°51'0 0.0
2018-Feb-15 12:59N 17°07' W 061°51'0 0.0
2018-Feb-15 12:29N 17°07' W 061°51'0 0.0
2018-Feb-15 11:59N 17°07' W 061°51'0 0.1
2018-Feb-15 11:30N 17°07' W 061°51'2 3.8
2018-Feb-15 11:00N 17°08' W 061°53'4 8.1
2018-Feb-15 10:30N 17°08' W 061°57'6 8.6
2018-Feb-15 09:49N 17°03' W 061°58'0 1.5
2018-Feb-15 09:30N 17°02' W 061°58'1 1.8
2018-Feb-15 09:00N 17°01' W 061°58'4 8.9
2018-Feb-15 08:31N 16°57' W 061°58'611.6
2018-Feb-15 08:00N 16°51' W 061°57'611.4
2018-Feb-15 07:29N 16°45' W 061°55'510.5
2018-Feb-15 07:00N 16°40' W 061°54'510.1
2018-Feb-15 06:31N 16°36' W 061°56'510.1
2018-Feb-15 06:00N 16°31' W 061°58'510.0
2018-Feb-15 05:30N 16°26' W 061°60'510.4
2018-Feb-15 05:00N 16°21' W 062°02'710.3
2018-Feb-15 04:17N 16°14' W 062°01'2111.6
2018-Feb-15 02:30N 15°57' W 061°49'21 7.9
2018-Feb-14 23:51N 16°09' W 061°31'5 0.4
2018-Feb-14 11:25N 16°14' W 061°32'2 5.9
2018-Feb-14 11:00N 16°11' W 061°32'4 6.7
2018-Feb-14 10:26N 16°09' W 061°29'  
Track history (hours):
 
Tides and Currents Weather Stations Pressure Air Temp Water Temp Dewpoint Dewpoint Depression Visibility Wind Speed Wind Dir Waves Ship Positions

Aidadiva

Last reported at 2018-Feb-16 04:29 UTC. Time now 2018-Feb-19 01:40 UTC.
Position N 16°53' W 062°50'.

Length 252 m; draft 7.2 m.

Type: Ship. MMSI: 247187700.

Date/timePositionNaut miles runAvg speedWind from/ knotsBaromVisibWave heightAir tempDewpointWater temp
2018-Feb-16 04:29N 16°53' W 062°50'2312.5
2018-Feb-16 02:37N 16°55' W 062°25'212.9
2018-Feb-16 02:26N 16°57' W 062°24'912.7
2018-Feb-16 01:43N 17°02' W 062°17'313.1
2018-Feb-16 01:29N 17°04' W 062°14'613.1
2018-Feb-16 01:01N 17°08' W 062°09'613.0
2018-Feb-16 00:31N 17°12' W 062°03'612.7
2018-Feb-16 00:00N 17°10' W 061°57'611.3
2018-Feb-15 23:30N 17°07' W 061°51'1 1.2
2018-Feb-15 23:01N 17°07' W 061°51'0 0.0
2018-Feb-15 22:30N 17°07' W 061°51'0 0.0
2018-Feb-15 22:00N 17°07' W 061°51'0 0.0
2018-Feb-15 21:30N 17°07' W 061°51'0 0.0
2018-Feb-15 21:00N 17°07' W 061°51'0 0.0
2018-Feb-15 20:26N 17°07' W 061°51'0 0.0
2018-Feb-15 19:59N 17°07' W 061°51'0 0.0
2018-Feb-15 19:29N 17°07' W 061°51'0 0.0
2018-Feb-15 18:59N 17°07' W 061°51'0 0.0
2018-Feb-15 18:29N 17°07' W 061°51'0 0.0
2018-Feb-15 17:58N 17°07' W 061°51'0 0.0
2018-Feb-15 17:28N 17°07' W 061°51'0 0.0
2018-Feb-15 16:58N 17°07' W 061°51'0 0.0
2018-Feb-15 16:25N 17°07' W 061°51'0 0.0
2018-Feb-15 16:00N 17°07' W 061°51'0 0.0
2018-Feb-15 15:30N 17°07' W 061°51'0 0.0
2018-Feb-15 14:54N 17°07' W 061°51'0 0.0
2018-Feb-15 14:30N 17°07' W 061°51'0 0.0
2018-Feb-15 14:00N 17°07' W 061°51'0 0.0
2018-Feb-15 13:29N 17°07' W 061°51'0 0.0
2018-Feb-15 12:59N 17°07' W 061°51'0 0.0
2018-Feb-15 12:29N 17°07' W 061°51'0 0.0
2018-Feb-15 11:59N 17°07' W 061°51'0 0.1
2018-Feb-15 11:30N 17°07' W 061°51'2 3.8
2018-Feb-15 11:00N 17°08' W 061°53'4 8.1
2018-Feb-15 10:30N 17°08' W 061°57'6 8.6
2018-Feb-15 09:49N 17°03' W 061°58'0 1.5
2018-Feb-15 09:30N 17°02' W 061°58'1 1.8
2018-Feb-15 09:00N 17°01' W 061°58'4 8.9
2018-Feb-15 08:31N 16°57' W 061°58'611.6
2018-Feb-15 08:00N 16°51' W 061°57'611.4
2018-Feb-15 07:29N 16°45' W 061°55'510.5
2018-Feb-15 07:00N 16°40' W 061°54'510.1
2018-Feb-15 06:31N 16°36' W 061°56'510.1
2018-Feb-15 06:00N 16°31' W 061°58'510.0
2018-Feb-15 05:30N 16°26' W 061°60'510.4
2018-Feb-15 05:00N 16°21' W 062°02'710.3
2018-Feb-15 04:17N 16°14' W 062°01'2111.6
2018-Feb-15 02:30N 15°57' W 061°49'21 7.9
2018-Feb-14 23:51N 16°09' W 061°31'5 0.4
2018-Feb-14 11:25N 16°14' W 061°32'2 5.9
2018-Feb-14 11:00N 16°11' W 061°32'4 6.7
2018-Feb-14 10:26N 16°09' W 061°29'  

Dump ship's entire track history